Time;durP1;ratioP1;P1;durP2;ratioP2;P2;SDS_P1;SDS_P2;PMS_P1;PMS_P2;Temp;Humidity;BMP_temperature;BMP_pressure;BME280_temperature;BME280_humidity;BME280_pressure;Samples;Min_cycle;Max_cycle;Signal;HPM_P1;HPM_P2
2022/01/10 00:02:08;;;;;;;17.52;8.98;;;2.70;99.90;;;;;;4927709;28;20030;-83
2022/01/10 00:04:33;;;;;;;22.73;11.07;;;2.60;99.90;;;;;;4927451;28;20035;-84
2022/01/10 00:06:59;;;;;;;26.45;12.18;;;2.60;99.90;;;;;;4933644;28;20938;-84
2022/01/10 00:09:24;;;;;;;26.13;11.45;;;2.60;99.90;;;;;;4940737;28;20661;-84
2022/01/10 00:11:50;;;;;;;22.73;10.32;;;2.40;99.90;;;;;;4932710;28;20031;-84
2022/01/10 00:14:15;;;;;;;29.27;12.25;;;2.40;99.90;;;;;;4932747;28;20039;-84
2022/01/10 00:16:41;;;;;;;26.23;12.15;;;2.30;99.90;;;;;;4953974;28;20035;-84
2022/01/10 00:19:06;;;;;;;32.22;12.98;;;2.30;99.90;;;;;;4930046;28;20114;-84
2022/01/10 00:21:32;;;;;;;28.50;12.32;;;2.40;99.90;;;;;;4927325;28;20521;-84
2022/01/10 00:23:58;;;;;;;24.13;11.23;;;2.30;99.90;;;;;;4961652;28;20050;-83
2022/01/10 00:26:23;;;;;;;27.85;12.25;;;2.30;99.90;;;;;;4942458;28;20041;-83
2022/01/10 00:28:49;;;;;;;16.08;9.30;;;2.10;99.90;;;;;;4931675;28;20036;-84
2022/01/10 00:31:14;;;;;;;30.88;13.38;;;2.10;99.90;;;;;;4929522;28;20035;-84
2022/01/10 00:33:40;;;;;;;24.50;11.02;;;2.10;99.90;;;;;;4944835;28;20035;-84
2022/01/10 00:36:05;;;;;;;25.02;11.43;;;2.10;99.90;;;;;;4930774;28;20752;-84
2022/01/10 00:38:31;;;;;;;27.73;11.93;;;2.00;99.90;;;;;;4940691;28;20038;-84
2022/01/10 00:40:56;;;;;;;21.98;12.10;;;2.10;99.90;;;;;;4933701;28;20089;-84
2022/01/10 00:43:33;;;;;;;29.80;12.88;;;2.10;99.90;;;;;;4930576;28;20038;-84
2022/01/10 00:45:59;;;;;;;28.95;12.90;;;2.10;99.90;;;;;;4956302;28;20076;-84
2022/01/10 00:48:25;;;;;;;21.27;9.68;;;1.90;99.90;;;;;;4940294;28;20411;-84
2022/01/10 00:50:53;;;;;;;19.35;10.30;;;2.00;99.90;;;;;;4939394;28;20039;-84
2022/01/10 00:53:18;;;;;;;19.75;10.38;;;2.00;99.90;;;;;;4927839;28;20047;-84
2022/01/10 00:55:44;;;;;;;19.45;10.60;;;2.00;99.90;;;;;;4940242;28;20035;-84
2022/01/10 00:58:09;;;;;;;24.90;10.98;;;1.90;99.90;;;;;;4915025;28;20101;-84
2022/01/10 01:00:35;;;;;;;33.13;12.23;;;1.90;99.90;;;;;;4940612;28;20046;-84
2022/01/10 01:03:00;;;;;;;25.05;11.75;;;1.80;99.90;;;;;;4943886;28;20067;-84
2022/01/10 01:05:26;;;;;;;24.90;12.25;;;1.80;99.90;;;;;;4939425;28;20050;-84
2022/01/10 01:07:52;;;;;;;23.70;9.52;;;1.70;99.90;;;;;;4935143;28;20039;-84
2022/01/10 01:13:19;;;;;;;20.58;9.05;;;1.80;99.90;;;;;;4946471;28;20047;-84
2022/01/10 01:15:57;;;;;;;18.63;10.35;;;1.80;99.90;;;;;;4926733;28;20031;-84
2022/01/10 01:19:08;;;;;;;24.98;13.95;;;1.80;99.90;;;;;;4911299;28;20520;-84
2022/01/10 01:24:14;;;;;;;33.40;13.68;;;1.60;99.90;;;;;;4942333;28;20045;-85
2022/01/10 01:26:41;;;;;;;27.98;11.35;;;1.40;99.90;;;;;;4929301;28;20027;-84
2022/01/10 01:29:08;;;;;;;24.17;9.75;;;1.30;99.90;;;;;;4924110;28;20826;-84
2022/01/10 01:31:34;;;;;;;20.30;9.90;;;1.40;99.90;;;;;;4928578;28;20685;-85
2022/01/10 01:34:00;;;;;;;29.05;12.55;;;1.40;99.90;;;;;;4930476;28;20039;-84
2022/01/10 01:36:26;;;;;;;31.75;13.75;;;1.30;99.90;;;;;;4928442;28;20039;-84
2022/01/10 01:38:55;;;;;;;27.02;11.88;;;1.20;99.90;;;;;;4931715;28;20053;-84
2022/01/10 01:43:52;;;;;;;29.95;15.05;;;1.10;99.90;;;;;;4944479;28;20085;-84
2022/01/10 01:46:18;;;;;;;27.02;11.50;;;0.90;99.90;;;;;;4944789;28;20035;-84
2022/01/10 01:48:44;;;;;;;32.78;13.90;;;0.90;99.90;;;;;;4928494;28;20046;-85
2022/01/10 01:51:09;;;;;;;38.60;13.68;;;1.00;99.90;;;;;;4923938;28;20035;-83
2022/01/10 01:53:36;;;;;;;23.58;11.18;;;1.00;99.90;;;;;;4926359;28;20039;-83
2022/01/10 01:56:03;;;;;;;25.25;11.20;;;1.00;99.90;;;;;;4938628;28;20113;-84
2022/01/10 01:58:28;;;;;;;30.50;11.52;;;1.10;99.90;;;;;;4930901;28;20042;-84
2022/01/10 02:00:54;;;;;;;32.75;12.80;;;1.20;99.90;;;;;;4936604;28;20035;-83
2022/01/10 02:03:20;;;;;;;22.08;10.90;;;1.20;99.90;;;;;;4940551;28;20039;-83
2022/01/10 02:05:45;;;;;;;21.10;10.32;;;1.20;99.90;;;;;;4929757;28;20142;-83
2022/01/10 02:08:11;;;;;;;18.60;8.68;;;1.10;99.90;;;;;;4927758;28;20118;-82
2022/01/10 02:10:37;;;;;;;26.70;11.75;;;1.30;99.90;;;;;;4929469;28;20062;-83
2022/01/10 02:13:02;;;;;;;21.45;10.40;;;1.30;99.90;;;;;;4929815;28;20480;-83
2022/01/10 02:16:05;;;;;;;29.50;13.52;;;1.20;99.90;;;;;;4952893;28;20063;-84
2022/01/10 02:18:21;;;;;;;28.05;12.75;;;1.10;99.90;;;;;;4933677;28;20031;-84
2022/01/10 02:20:47;;;;;;;35.78;12.77;;;0.90;99.90;;;;;;4941397;28;20042;-83
2022/01/10 02:23:13;;;;;;;31.33;11.63;;;0.90;99.90;;;;;;4927079;28;20155;-83
2022/01/10 02:25:39;;;;;;;21.23;10.25;;;0.90;99.90;;;;;;4944438;28;20031;-83
2022/01/10 02:28:04;;;;;;;28.63;12.43;;;0.90;99.90;;;;;;4933747;28;20035;-83
2022/01/10 02:30:30;;;;;;;31.08;13.77;;;0.90;99.90;;;;;;4941257;28;20031;-83
2022/01/10 02:32:57;;;;;;;27.52;11.32;;;0.90;99.90;;;;;;4934173;28;20035;-83
2022/01/10 02:35:36;;;;;;;23.80;12.02;;;0.90;99.90;;;;;;4942586;28;20043;-84
2022/01/10 02:38:02;;;;;;;24.95;11.73;;;0.80;99.90;;;;;;4935049;28;20043;-84
2022/01/10 02:40:30;;;;;;;27.75;12.00;;;0.80;99.90;;;;;;4945362;28;20058;-84
2022/01/10 02:42:56;;;;;;;30.38;13.30;;;0.80;99.90;;;;;;4933751;28;20039;-84
2022/01/10 02:45:22;;;;;;;21.98;11.15;;;0.80;99.90;;;;;;4942187;28;20138;-84
2022/01/10 02:47:47;;;;;;;19.63;10.75;;;0.80;99.90;;;;;;4929140;28;20624;-84
2022/01/10 02:50:13;;;;;;;22.23;10.90;;;0.70;99.90;;;;;;4934345;28;20030;-84
2022/01/10 02:52:39;;;;;;;25.20;11.13;;;0.70;99.90;;;;;;4918225;28;20043;-84
2022/01/10 02:55:05;;;;;;;26.38;10.38;;;0.90;99.90;;;;;;4932711;28;20031;-84
2022/01/10 02:57:31;;;;;;;36.15;14.07;;;0.70;99.90;;;;;;4928328;28;20206;-83
2022/01/10 02:59:57;;;;;;;23.10;12.50;;;0.60;99.90;;;;;;4947441;28;20500;-84
2022/01/10 03:02:27;;;;;;;34.20;14.35;;;0.60;99.90;;;;;;4940554;28;20035;-84
2022/01/10 03:04:53;;;;;;;27.42;11.60;;;0.40;99.90;;;;;;4949985;28;20023;-84
2022/01/10 03:07:22;;;;;;;28.48;12.55;;;0.40;99.90;;;;;;4933161;28;20488;-84
2022/01/10 03:09:47;;;;;;;33.50;14.32;;;0.50;99.90;;;;;;4949153;28;20486;-84
2022/01/10 03:12:13;;;;;;;25.88;11.70;;;0.50;99.90;;;;;;4927385;28;20039;-83
2022/01/10 03:14:39;;;;;;;24.17;11.05;;;0.40;99.90;;;;;;4915230;28;20030;-84
2022/01/10 03:17:04;;;;;;;20.70;10.35;;;0.30;99.90;;;;;;4935959;28;20031;-84
2022/01/10 03:19:30;;;;;;;34.58;14.57;;;0.30;99.90;;;;;;4932713;28;20034;-84
2022/01/10 03:21:55;;;;;;;38.13;13.52;;;0.30;99.90;;;;;;4931778;28;20118;-84
2022/01/10 03:24:21;;;;;;;34.50;15.50;;;0.30;99.90;;;;;;4942916;28;20055;-84
2022/01/10 03:26:46;;;;;;;42.97;14.73;;;0.20;99.90;;;;;;4914117;28;20019;-84
2022/01/10 03:29:12;;;;;;;23.58;10.90;;;0.10;99.90;;;;;;4949738;28;20511;-83
2022/01/10 03:31:37;;;;;;;42.90;15.60;;;0.20;99.90;;;;;;4928370;28;20503;-86
2022/01/10 03:34:05;;;;;;;31.05;14.02;;;0.20;99.90;;;;;;4958753;28;20030;-84
2022/01/10 03:36:31;;;;;;;35.75;14.35;;;0.20;99.90;;;;;;4931852;28;20054;-84
2022/01/10 03:38:56;;;;;;;24.88;11.68;;;0.20;99.90;;;;;;4928801;28;20027;-84
2022/01/10 03:41:22;;;;;;;36.22;14.50;;;0.40;99.90;;;;;;4954349;28;20039;-83
2022/01/10 03:43:47;;;;;;;27.15;13.48;;;0.30;99.90;;;;;;4945784;28;20027;-83
2022/01/10 03:46:13;;;;;;;27.40;12.55;;;0.20;99.90;;;;;;4944956;28;20034;-83
2022/01/10 03:51:24;;;;;;;28.55;13.10;;;0.10;99.90;;;;;;4928200;28;20483;-85
2022/01/10 03:53:50;;;;;;;32.72;14.90;;;0.20;99.90;;;;;;4928897;28;20034;-83
2022/01/10 03:56:15;;;;;;;23.67;12.02;;;0.30;99.90;;;;;;4923805;28;20592;-83
2022/01/10 03:58:41;;;;;;;25.38;12.07;;;0.20;99.90;;;;;;4953525;28;20114;-83
2022/01/10 04:01:08;;;;;;;24.55;11.82;;;0.30;99.90;;;;;;4929930;28;20566;-83
2022/01/10 04:03:35;;;;;;;24.30;11.40;;;0.30;99.90;;;;;;4947227;28;20487;-84
2022/01/10 04:06:00;;;;;;;26.85;11.38;;;0.40;99.90;;;;;;4932825;28;20039;-83
2022/01/10 04:08:26;;;;;;;25.20;13.23;;;0.20;99.90;;;;;;4930404;28;20043;-84
2022/01/10 04:10:52;;;;;;;22.50;12.88;;;0.30;99.90;;;;;;4953984;28;20388;-83
2022/01/10 04:13:18;;;;;;;29.17;12.60;;;0.20;99.90;;;;;;4945817;28;20086;-83
2022/01/10 04:15:43;;;;;;;33.47;15.95;;;0.20;99.90;;;;;;4948349;28;20039;-83
2022/01/10 04:18:09;;;;;;;24.55;13.18;;;0.00;99.90;;;;;;4942733;28;20407;-83
2022/01/10 04:20:34;;;;;;;21.42;10.80;;;-0.10;99.90;;;;;;4932756;28;20364;-83
2022/01/10 04:23:00;;;;;;;29.88;13.63;;;0.10;99.90;;;;;;4930071;28;20034;-84
2022/01/10 04:25:25;;;;;;;32.45;14.27;;;0.10;99.90;;;;;;4938774;28;20496;-83
2022/01/10 04:27:51;;;;;;;35.08;14.40;;;-0.10;99.90;;;;;;4933512;28;20041;-83
2022/01/10 04:30:17;;;;;;;29.33;13.45;;;-0.20;99.90;;;;;;4939616;28;20122;-84
2022/01/10 04:32:44;;;;;;;27.02;11.60;;;-0.30;99.90;;;;;;4942936;28;20443;-83
2022/01/10 04:35:10;;;;;;;43.17;15.82;;;-0.30;99.90;;;;;;4944867;28;20136;-83
2022/01/10 04:37:35;;;;;;;39.90;15.45;;;-0.30;99.90;;;;;;4929678;28;20043;-83
2022/01/10 04:40:01;;;;;;;27.60;11.20;;;-0.40;99.90;;;;;;4919760;28;20878;-83
2022/01/10 04:42:26;;;;;;;23.23;10.43;;;-0.10;99.90;;;;;;4929738;28;20023;-83
2022/01/10 04:44:52;;;;;;;28.70;12.27;;;0.10;99.90;;;;;;4933690;28;20117;-83
2022/01/10 04:47:17;;;;;;;33.47;14.85;;;0.10;99.90;;;;;;4943184;28;20042;-83
2022/01/10 04:52:27;;;;;;;32.83;14.07;;;-0.30;99.90;;;;;;4930585;28;20046;-83
2022/01/10 04:54:53;;;;;;;25.45;13.85;;;-0.50;99.90;;;;;;4932236;28;20039;-84
2022/01/10 04:57:18;;;;;;;30.13;14.52;;;-0.50;99.90;;;;;;4927854;28;20036;-83
2022/01/10 04:59:44;;;;;;;31.92;13.55;;;-0.50;99.90;;;;;;4940813;28;20042;-83
2022/01/10 05:02:12;;;;;;;32.42;15.27;;;-0.40;99.90;;;;;;4945695;28;20526;-84
2022/01/10 05:04:38;;;;;;;41.42;15.52;;;-0.60;99.90;;;;;;4945061;28;20031;-84
2022/01/10 05:07:03;;;;;;;25.42;12.98;;;-0.60;99.90;;;;;;4942820;28;20089;-84
2022/01/10 05:09:29;;;;;;;23.83;12.60;;;-0.60;99.90;;;;;;4928745;28;20038;-83
2022/01/10 05:11:55;;;;;;;29.42;13.00;;;-0.50;99.90;;;;;;4930355;28;20034;-83
2022/01/10 05:14:20;;;;;;;23.45;12.68;;;-0.20;99.90;;;;;;4945546;28;20041;-84
2022/01/10 05:16:46;;;;;;;21.30;11.23;;;-0.20;99.90;;;;;;4932873;28;20031;-84
2022/01/10 05:19:12;;;;;;;26.83;14.32;;;-0.20;99.90;;;;;;4929241;28;20090;-84
2022/01/10 05:21:38;;;;;;;30.42;14.77;;;-0.30;99.90;;;;;;4927137;28;20035;-84
2022/01/10 05:24:03;;;;;;;22.95;13.30;;;-0.60;99.90;;;;;;4930947;28;20900;-84
2022/01/10 05:26:29;;;;;;;28.25;14.93;;;-0.60;99.90;;;;;;4915872;28;20067;-84
2022/01/10 05:28:59;;;;;;;34.70;15.30;;;-0.30;99.90;;;;;;4945669;28;20682;-84
2022/01/10 05:31:25;;;;;;;37.92;15.60;;;-0.30;99.90;;;;;;4922548;28;20090;-83
2022/01/10 05:33:50;;;;;;;22.48;12.52;;;-0.50;99.90;;;;;;4945579;28;20431;-84
2022/01/10 05:36:16;;;;;;;28.95;13.63;;;-0.60;99.90;;;;;;4933360;28;20169;-84
2022/01/10 05:38:41;;;;;;;23.23;11.05;;;-0.70;99.90;;;;;;4928347;28;20031;-84
2022/01/10 05:41:07;;;;;;;22.15;11.07;;;-0.40;99.90;;;;;;4946696;28;20085;-84
2022/01/10 05:43:32;;;;;;;31.95;13.32;;;-0.30;99.90;;;;;;4924535;28;20034;-84
2022/01/10 05:45:58;;;;;;;22.50;11.23;;;-0.40;99.90;;;;;;4943624;28;20391;-84
2022/01/10 05:48:29;;;;;;;28.92;14.35;;;-0.40;99.90;;;;;;4940694;28;20063;-83
2022/01/10 05:50:54;;;;;;;29.95;12.27;;;-0.40;99.90;;;;;;4929059;28;20039;-84
2022/01/10 05:53:20;;;;;;;28.92;14.15;;;-0.50;99.90;;;;;;4943172;28;20035;-83
2022/01/10 05:55:46;;;;;;;24.98;11.70;;;-0.60;99.90;;;;;;4929284;28;20114;-83
2022/01/10 05:58:12;;;;;;;37.05;13.95;;;-0.70;99.90;;;;;;4942907;28;20066;-83
2022/01/10 06:00:37;;;;;;;56.70;14.80;;;-0.80;99.90;;;;;;4929234;28;20042;-84
2022/01/10 06:03:03;;;;;;;21.75;10.32;;;-0.80;99.90;;;;;;4915418;28;20035;-83
2022/01/10 06:05:31;;;;;;;24.55;11.05;;;-0.60;99.90;;;;;;4930161;28;20451;-83
2022/01/10 06:07:58;;;;;;;22.92;11.90;;;-0.40;99.90;;;;;;4928612;28;20041;-84
2022/01/10 06:10:24;;;;;;;21.55;11.95;;;-0.30;99.90;;;;;;4937653;28;20203;-83
2022/01/10 06:12:49;;;;;;;25.48;12.32;;;-0.20;99.90;;;;;;4951884;28;20122;-84
2022/01/10 06:15:15;;;;;;;35.20;14.80;;;-0.20;99.90;;;;;;4910889;28;20038;-84
2022/01/10 06:17:40;;;;;;;30.52;13.35;;;-0.50;99.90;;;;;;4933020;28;20035;-84
2022/01/10 06:20:06;;;;;;;34.85;15.98;;;-0.50;99.90;;;;;;4920477;28;20032;-84
2022/01/10 06:22:32;;;;;;;35.38;14.40;;;-0.60;99.90;;;;;;4936907;28;20039;-84
2022/01/10 06:24:58;;;;;;;21.08;12.02;;;-0.70;99.90;;;;;;4943787;28;20019;-84
2022/01/10 06:27:23;;;;;;;30.25;14.00;;;-0.70;99.90;;;;;;4929646;28;20035;-85
2022/01/10 06:29:49;;;;;;;25.85;14.52;;;-0.60;99.90;;;;;;4912408;28;20522;-84
2022/01/10 06:32:14;;;;;;;32.83;15.68;;;-0.50;99.90;;;;;;4925684;28;20060;-84
2022/01/10 06:34:40;;;;;;;33.88;15.45;;;-0.60;99.90;;;;;;4912712;28;20028;-84
2022/01/10 06:37:05;;;;;;;31.90;15.65;;;-0.80;99.90;;;;;;4927709;28;20493;-84
2022/01/10 06:39:32;;;;;;;35.55;16.60;;;-0.80;99.90;;;;;;4927360;28;20437;-85
2022/01/10 06:41:58;;;;;;;35.35;17.30;;;-0.90;99.90;;;;;;4941702;28;20491;-84
2022/01/10 06:44:24;;;;;;;36.40;17.05;;;-1.10;99.90;;;;;;4928737;28;20093;-84
2022/01/10 06:46:50;;;;;;;45.20;19.77;;;-1.10;99.90;;;;;;4956515;28;20115;-83
2022/01/10 06:49:16;;;;;;;38.75;18.20;;;-1.10;99.90;;;;;;4928067;28;20500;-84
2022/01/10 06:51:42;;;;;;;38.65;18.60;;;-1.10;99.90;;;;;;4936267;28;20039;-83
2022/01/10 06:54:07;;;;;;;38.95;18.00;;;-1.20;99.90;;;;;;4911735;28;20043;-84
2022/01/10 06:56:33;;;;;;;27.27;13.50;;;-0.80;99.90;;;;;;4927026;28;20031;-85
2022/01/10 06:58:58;;;;;;;42.88;17.60;;;-0.70;99.90;;;;;;4930198;28;20043;-84
2022/01/10 07:01:24;;;;;;;32.75;13.57;;;-0.80;99.90;;;;;;4934209;28;20036;-84
2022/01/10 07:03:53;;;;;;;31.88;12.70;;;-0.90;99.90;;;;;;4938542;28;20073;-84
2022/01/10 07:06:19;;;;;;;41.03;15.00;;;-0.60;99.90;;;;;;4913548;28;20419;-84
2022/01/10 07:08:45;;;;;;;43.03;17.85;;;-0.50;99.90;;;;;;4943465;28;20031;-84
2022/01/10 07:11:12;;;;;;;37.50;14.73;;;-0.70;99.90;;;;;;4914627;28;20046;-84
2022/01/10 07:13:37;;;;;;;39.03;16.23;;;-0.70;99.90;;;;;;4942165;28;20039;-84
2022/01/10 07:16:03;;;;;;;37.72;18.27;;;-0.70;99.90;;;;;;4957364;28;20805;-84
2022/01/10 07:18:29;;;;;;;43.72;17.40;;;-1.00;99.90;;;;;;4932581;28;20041;-84
2022/01/10 07:20:54;;;;;;;39.63;18.42;;;-1.10;99.90;;;;;;4934294;28;20094;-85
2022/01/10 07:23:23;;;;;;;34.90;18.20;;;-1.20;99.90;;;;;;4943695;28;20593;-84
2022/01/10 07:25:49;;;;;;;35.92;16.65;;;-1.20;99.90;;;;;;4915326;28;20047;-85
2022/01/10 07:28:15;;;;;;;38.78;15.70;;;-1.10;99.90;;;;;;4930936;28;20049;-84
2022/01/10 07:30:50;;;;;;;34.67;16.02;;;-1.00;99.90;;;;;;4932264;28;20039;-85
2022/01/10 07:33:16;;;;;;;39.25;16.95;;;-0.90;99.90;;;;;;4942232;28;20484;-84
2022/01/10 07:35:41;;;;;;;38.65;17.35;;;-1.00;99.90;;;;;;4928841;28;20707;-84
2022/01/10 07:38:07;;;;;;;40.67;16.33;;;-1.10;99.90;;;;;;4914472;28;20126;-85
2022/01/10 07:40:34;;;;;;;26.15;12.45;;;-1.10;99.90;;;;;;4927952;28;20023;-84
2022/01/10 07:42:59;;;;;;;31.13;12.45;;;-0.90;99.90;;;;;;4919991;28;20027;-84
2022/01/10 07:45:25;;;;;;;25.70;13.23;;;-0.70;99.90;;;;;;4943669;28;20031;-84
2022/01/10 07:47:51;;;;;;;30.65;15.30;;;-0.70;99.90;;;;;;4940633;28;20031;-84
2022/01/10 07:50:17;;;;;;;31.45;13.63;;;-0.80;99.90;;;;;;4927194;28;20035;-85
2022/01/10 07:52:42;;;;;;;36.47;17.55;;;-1.00;99.90;;;;;;4930816;28;20082;-84
2022/01/10 07:55:09;;;;;;;32.15;15.73;;;-1.10;99.90;;;;;;4942831;28;20031;-84
2022/01/10 07:57:34;;;;;;;42.05;17.70;;;-1.30;99.90;;;;;;4941164;28;20038;-84
2022/01/10 08:00:00;;;;;;;25.20;12.55;;;-1.30;99.90;;;;;;4933344;28;20027;-84
2022/01/10 08:02:26;;;;;;;36.47;14.90;;;-1.10;99.90;;;;;;4944010;28;20045;-85
2022/01/10 08:04:51;;;;;;;40.97;18.83;;;-0.90;99.90;;;;;;4943054;28;20102;-84
2022/01/10 08:07:17;;;;;;;42.08;18.85;;;-1.00;99.90;;;;;;4912471;28;20583;-84
2022/01/10 08:09:42;;;;;;;49.33;20.15;;;-1.10;99.90;;;;;;4945302;28;20126;-84
2022/01/10 08:12:09;;;;;;;41.60;19.17;;;-1.20;99.90;;;;;;4928806;28;20038;-83
2022/01/10 08:14:35;;;;;;;36.92;17.23;;;-1.20;99.90;;;;;;4940434;28;20141;-85
2022/01/10 08:17:00;;;;;;;40.03;18.88;;;-1.00;99.90;;;;;;4930848;28;20146;-84
2022/01/10 08:19:31;;;;;;;47.30;21.90;;;-1.20;99.90;;;;;;4929575;28;20039;-84
2022/01/10 08:21:57;;;;;;;47.55;20.55;;;-1.40;99.90;;;;;;4929781;28;20023;-84
2022/01/10 08:24:23;;;;;;;51.25;22.08;;;-1.50;99.90;;;;;;4931256;28;20044;-84
2022/01/10 08:26:49;;;;;;;46.60;20.45;;;-1.50;99.90;;;;;;4912033;28;20071;-84
2022/01/10 08:29:15;;;;;;;49.53;22.00;;;-1.50;99.90;;;;;;4925697;28;20060;-84
2022/01/10 08:31:40;;;;;;;47.28;20.65;;;-1.50;99.90;;;;;;4931029;28;20053;-84
2022/01/10 08:34:07;;;;;;;53.15;21.73;;;-1.40;99.90;;;;;;4944670;28;20561;-84
2022/01/10 08:36:33;;;;;;;49.30;21.75;;;-1.50;99.90;;;;;;4942377;28;20039;-84
2022/01/10 08:38:58;;;;;;;57.17;22.30;;;-1.50;99.90;;;;;;4933088;28;20035;-85
2022/01/10 08:41:24;;;;;;;54.38;22.60;;;-1.50;99.90;;;;;;4929503;28;20101;-84
2022/01/10 08:43:49;;;;;;;51.58;21.13;;;-1.40;99.90;;;;;;4944136;28;20031;-84
2022/01/10 08:46:15;;;;;;;47.50;20.33;;;-1.30;99.90;;;;;;4911028;28;20035;-85
2022/01/10 08:48:41;;;;;;;46.70;19.52;;;-1.00;99.90;;;;;;4942173;28;20046;-85
2022/01/10 08:51:07;;;;;;;45.53;21.17;;;-1.20;99.90;;;;;;4941211;28;20440;-84
2022/01/10 08:53:32;;;;;;;49.47;20.55;;;-1.20;99.90;;;;;;4940556;28;20050;-84
2022/01/10 08:55:58;;;;;;;58.60;23.33;;;-1.30;99.90;;;;;;4941648;28;20035;-84
2022/01/10 08:58:26;;;;;;;64.20;26.27;;;-1.30;99.90;;;;;;4939124;28;20114;-84
2022/01/10 09:00:51;;;;;;;55.67;25.02;;;-1.30;99.90;;;;;;4939701;28;20041;-84
2022/01/10 09:03:18;;;;;;;66.85;25.35;;;-1.20;99.90;;;;;;4929506;28;20043;-84
2022/01/10 09:05:43;;;;;;;55.67;23.60;;;-1.20;99.90;;;;;;4946275;28;20185;-84
2022/01/10 09:08:09;;;;;;;58.35;23.38;;;-1.10;99.90;;;;;;4946225;28;20039;-84
2022/01/10 09:10:34;;;;;;;51.70;23.90;;;-0.90;99.90;;;;;;4927572;28;20027;-84
2022/01/10 09:13:00;;;;;;;41.03;18.60;;;-0.80;99.90;;;;;;4941243;28;20042;-84
2022/01/10 09:15:26;;;;;;;53.42;22.40;;;-0.60;99.90;;;;;;4924906;28;20055;-83
2022/01/10 09:17:51;;;;;;;51.28;21.63;;;-0.50;99.90;;;;;;4943143;28;20084;-83
2022/01/10 09:20:17;;;;;;;49.83;20.48;;;-0.50;99.90;;;;;;4929265;28;20089;-84
2022/01/10 09:22:42;;;;;;;51.35;21.42;;;-0.30;99.90;;;;;;4928152;28;20019;-84
2022/01/10 09:25:08;;;;;;;51.33;21.10;;;-0.20;99.90;;;;;;4928207;28;20073;-84
2022/01/10 09:27:33;;;;;;;39.72;17.90;;;-0.10;99.90;;;;;;4959469;28;20086;-84
2022/01/10 09:29:59;;;;;;;29.40;16.42;;;0.10;99.90;;;;;;4927335;28;20106;-84
2022/01/10 09:32:25;;;;;;;40.38;17.67;;;0.20;99.90;;;;;;4926371;28;20127;-84
2022/01/10 09:34:50;;;;;;;32.67;14.77;;;0.40;99.90;;;;;;4946417;28;20121;-84
2022/01/10 09:37:16;;;;;;;28.83;15.27;;;0.60;99.90;;;;;;4925944;28;20115;-84
2022/01/10 09:39:43;;;;;;;29.00;16.20;;;0.80;99.90;;;;;;4939928;28;20034;-84
2022/01/10 09:42:10;;;;;;;46.20;21.23;;;0.90;99.90;;;;;;4911215;28;20114;-84
2022/01/10 09:44:35;;;;;;;39.85;18.60;;;1.00;99.90;;;;;;4960173;28;20027;-84
2022/01/10 09:47:01;;;;;;;28.17;15.00;;;1.00;99.90;;;;;;4915754;28;20030;-84
2022/01/10 09:49:27;;;;;;;32.35;16.80;;;1.10;99.90;;;;;;4925871;28;20111;-84
2022/01/10 09:51:52;;;;;;;32.83;17.38;;;1.40;99.90;;;;;;4914198;28;20171;-85
2022/01/10 09:54:18;;;;;;;43.78;18.90;;;1.50;99.90;;;;;;4930162;28;20117;-85
2022/01/10 09:56:47;;;;;;;41.20;18.52;;;1.60;99.90;;;;;;4926708;28;20452;-85
2022/01/10 09:59:13;;;;;;;29.38;16.38;;;1.60;99.90;;;;;;4927550;28;20395;-85
2022/01/10 10:01:39;;;;;;;39.30;18.02;;;1.70;99.90;;;;;;4939488;28;20549;-85
2022/01/10 10:04:04;;;;;;;49.95;20.55;;;2.00;99.90;;;;;;4924365;28;20035;-85
2022/01/10 10:06:33;;;;;;;34.08;16.33;;;2.20;99.90;;;;;;4912605;28;20062;-84
2022/01/10 10:08:59;;;;;;;38.83;17.23;;;2.20;99.90;;;;;;4916399;28;20664;-84
2022/01/10 10:11:50;;;;;;;30.05;16.63;;;2.10;99.90;;;;;;4926012;28;20109;-84
2022/01/10 10:14:17;;;;;;;35.75;18.70;;;2.10;99.90;;;;;;4957615;28;20039;-86
2022/01/10 10:16:49;;;;;;;30.65;16.05;;;2.40;99.90;;;;;;4942232;28;20066;-84
2022/01/10 10:19:17;;;;;;;28.40;13.77;;;2.40;99.90;;;;;;4925421;28;20057;-85
2022/01/10 10:21:42;;;;;;;35.05;16.30;;;2.50;99.90;;;;;;4939054;28;20484;-84
2022/01/10 10:24:08;;;;;;;31.67;14.82;;;2.70;99.90;;;;;;4924935;28;20034;-84
2022/01/10 10:26:35;;;;;;;28.27;14.88;;;2.80;99.90;;;;;;4930311;28;20138;-84
2022/01/10 10:29:01;;;;;;;37.00;15.88;;;2.90;99.90;;;;;;4942928;28;20589;-84
2022/01/10 10:31:35;;;;;;;39.15;15.02;;;3.00;99.90;;;;;;4930298;28;20031;-85
2022/01/10 10:34:03;;;;;;;37.92;15.80;;;3.30;99.90;;;;;;4928964;28;20483;-85
2022/01/10 10:36:31;;;;;;;27.90;13.73;;;3.50;99.90;;;;;;4943455;28;20496;-85
2022/01/10 10:38:57;;;;;;;30.20;15.05;;;3.50;99.90;;;;;;4932313;28;20042;-86
2022/01/10 10:41:23;;;;;;;34.50;15.65;;;3.60;99.90;;;;;;4928893;28;20043;-86
2022/01/10 10:43:51;;;;;;;30.98;15.00;;;3.70;99.90;;;;;;4944341;28;20392;-85
2022/01/10 10:46:18;;;;;;;33.88;15.60;;;3.70;99.90;;;;;;4927655;28;20497;-86
2022/01/10 10:48:45;;;;;;;48.95;20.25;;;4.10;99.90;;;;;;4914701;28;20047;-86
2022/01/10 10:51:11;;;;;;;30.35;15.85;;;4.20;99.90;;;;;;4934216;28;20065;-86
2022/01/10 10:53:37;;;;;;;28.27;14.65;;;4.30;99.90;;;;;;4929258;28;20321;-85
2022/01/10 10:56:04;;;;;;;32.00;15.60;;;4.30;99.90;;;;;;4932671;28;20050;-85
2022/01/10 10:58:31;;;;;;;34.35;15.60;;;4.50;99.90;;;;;;4918980;29;20039;-84
2022/01/10 11:00:59;;;;;;;30.10;14.60;;;4.70;99.90;;;;;;4930395;28;20055;-85
2022/01/10 11:03:24;;;;;;;35.75;14.98;;;4.90;99.90;;;;;;4928826;28;20031;-85
2022/01/10 11:05:50;;;;;;;27.48;14.93;;;5.10;99.90;;;;;;4935358;28;20109;-85
2022/01/10 11:08:16;;;;;;;30.42;15.48;;;5.00;99.90;;;;;;4932048;28;20139;-85
2022/01/10 11:10:46;;;;;;;37.28;17.85;;;5.20;99.90;;;;;;4943940;28;20126;-85
2022/01/10 11:13:14;;;;;;;26.40;14.32;;;5.30;99.90;;;;;;4928625;28;20023;-85
2022/01/10 11:15:40;;;;;;;32.35;15.98;;;5.50;99.90;;;;;;4934228;28;20491;-86
2022/01/10 11:18:07;;;;;;;37.85;16.05;;;5.60;99.90;;;;;;4939424;28;20038;-86
2022/01/10 11:20:44;;;;;;;38.55;15.05;;;5.90;99.90;;;;;;4928937;28;20114;-85
2022/01/10 11:23:11;;;;;;;31.52;13.68;;;6.00;99.90;;;;;;4932617;28;20572;-86
2022/01/10 11:25:39;;;;;;;27.52;14.25;;;6.10;99.90;;;;;;4941128;28;20511;-86
2022/01/10 11:28:09;;;;;;;32.67;12.82;;;6.10;99.90;;;;;;4927920;28;20047;-86
2022/01/10 11:30:45;;;;;;;41.63;15.45;;;6.10;99.90;;;;;;4955384;28;20420;-86
2022/01/10 11:33:18;;;;;;;27.88;13.90;;;6.50;99.90;;;;;;4912351;28;20020;-87
2022/01/10 11:35:57;;;;;;;32.65;14.63;;;6.90;99.90;;;;;;4927028;28;20110;-86
2022/01/10 11:38:42;;;;;;;29.67;13.77;;;7.20;99.90;;;;;;4932002;28;20023;-86
2022/01/10 11:41:09;;;;;;;41.38;15.27;;;7.20;99.90;;;;;;4934434;28;20050;-86
2022/01/10 11:43:56;;;;;;;32.08;13.18;;;7.20;99.90;;;;;;4925841;28;20027;-86
2022/01/10 11:46:42;;;;;;;23.48;12.60;;;7.50;99.90;;;;;;4948608;28;20089;-86
2022/01/10 11:49:12;;;;;;;22.23;11.57;;;7.80;99.90;;;;;;4942891;28;20534;-86
2022/01/10 11:51:40;;;;;;;39.15;15.00;;;7.70;99.90;;;;;;4943622;28;20039;-86
2022/01/10 11:54:11;;;;;;;28.95;13.68;;;7.80;99.90;;;;;;4965184;28;20019;-86
2022/01/10 11:56:47;;;;;;;32.90;13.98;;;7.80;99.90;;;;;;4921328;28;20047;-85
2022/01/10 11:59:17;;;;;;;32.42;12.77;;;8.10;99.90;;;;;;4942818;28;20026;-86
2022/01/10 12:02:19;;;;;;;29.63;12.98;;;7.40;99.90;;;;;;4939882;28;20039;-85
2022/01/10 12:04:57;;;;;;;24.45;11.10;;;7.10;99.90;;;;;;4941022;28;20035;-86
2022/01/10 12:07:28;;;;;;;20.88;11.07;;;7.10;99.90;;;;;;4933657;28;20043;-86
2022/01/10 12:09:54;;;;;;;23.75;10.73;;;7.90;99.90;;;;;;4943179;28;20038;-86
2022/01/10 12:12:20;;;;;;;29.80;12.32;;;8.50;99.90;;;;;;4920489;28;20043;-84
2022/01/10 12:14:47;;;;;;;36.38;11.50;;;8.30;99.90;;;;;;4928465;28;20042;-83
2022/01/10 12:17:13;;;;;;;28.60;10.85;;;7.30;99.90;;;;;;4916913;28;20531;-83
2022/01/10 12:19:39;;;;;;;25.20;11.15;;;7.80;99.90;;;;;;4933389;28;20035;-86
2022/01/10 12:22:06;;;;;;;29.10;11.02;;;8.90;99.90;;;;;;4918533;28;20042;-86
2022/01/10 12:24:33;;;;;;;30.58;10.48;;;8.80;99.90;;;;;;4930554;28;20054;-86
2022/01/10 12:27:00;;;;;;;20.20;9.25;;;7.70;99.90;;;;;;4932783;28;20042;-86
2022/01/10 12:29:29;;;;;;;19.50;8.57;;;8.10;99.90;;;;;;4944393;28;20045;-86
2022/01/10 12:31:55;;;;;;;24.70;9.52;;;8.80;99.90;;;;;;4957345;28;20031;-86
2022/01/10 12:34:21;;;;;;;24.17;8.82;;;7.90;99.90;;;;;;4947993;28;20054;-86
2022/01/10 12:36:46;;;;;;;21.00;9.57;;;8.00;99.90;;;;;;4930914;28;20031;-86
2022/01/10 12:39:24;;;;;;;26.48;9.10;;;7.80;99.90;;;;;;4931532;28;20043;-86
2022/01/10 12:41:50;;;;;;;21.33;8.48;;;8.50;99.90;;;;;;4919039;28;20035;-87
2022/01/10 12:44:16;;;;;;;15.35;7.45;;;9.00;99.90;;;;;;4930165;28;20547;-86
2022/01/10 12:46:42;;;;;;;24.63;9.43;;;9.40;99.90;;;;;;4943580;28;20114;-86